Needles Airport Needles US
ICAO: KEED
IATA: EED
Category: Medium
Scheduled Services: No

Elevation: 983 ft
TransAlt. 18000 ft.

Airport Communications:
LOS ANGELES CNTR:134.65
ASOS:128.325
PRESCOTT RDO:115.2
CTAF/UNICOM:123

KEED Zoom In..

If Map Doesn't Load, Click Here

Runways:

(A) RW 02 length 4235 ft width 100 ft
---- / hdg 16

(B) RW 11 length 5005 ft width 100 ft
---- / hdg 106

(C) RW 20 length 4235 ft width 100 ft
---- / hdg 196

(D) RW 29 length 5005 ft width 100 ft
---- / hdg 286

Location; KEED
Day. 23 / Time. 07.56 Zulu
* Altimeter: 29.79
* Temperature: 33° c. 91.4°f.
* Wind from: 310° Speed 03 kn.
Dewpoint: 06° c.
Visibility: 10 Statute Miles.
Clouds: Clear (automated report).

KEED 230756Z AUTO 31003KT 10SM CLR 33/06 A2979 RMK AO2 SLP049 T03280056 404220267


Wind From 310°
Speed 03 kn.

 
 
jpsmedia.com for Web Design worldairports.se 2018   terms of use